Terminal Aerodrome Forecast
Issued by NWS

Home | Current Version | Previous Version | Text Only | Print | Product List | Glossary On
Versions: 1 2 3 4 5 6 7 8 9 10 11 12 13 14 15 16 17 18 19 20 21 22 23 24 25 26 27 28 29 30 31
286
FTUS46 KMTR 230902 AAA
TAFSFO
TAF AMD
KSFO 230902Z 2309/2412 27010KT P6SM FEW008
      TEMPO 2309/2310 BKN009
     FM231000 29006KT P6SM BKN009
     FM231600 28006KT P6SM FEW012
     FM232100 30016KT P6SM SKC
     FM240500 29011KT P6SM SKC=

USA.gov is the U.S. government's official web portal to all federal, state and local government web resources and services.